createdAt,value
2022-09-17T00:01:36.163Z,82.11
2022-09-17T00:04:06.746Z,82.18
2022-09-17T00:06:38.151Z,82.31
2022-09-17T00:09:09.206Z,82.46
2022-09-17T00:11:41.009Z,82.36
2022-09-17T00:14:12.238Z,82.41
2022-09-17T00:16:46.860Z,82.47
2022-09-17T00:19:18.298Z,82.69
2022-09-17T00:21:47.863Z,82.60
2022-09-17T00:24:18.182Z,82.68
2022-09-17T00:26:47.915Z,82.61
2022-09-17T00:29:17.645Z,82.65
2022-09-17T00:31:50.340Z,82.57
2022-09-17T00:34:19.934Z,82.54
2022-09-17T00:36:49.462Z,82.60
2022-09-17T00:39:19.010Z,82.54
2022-09-17T00:41:48.765Z,82.53
2022-09-17T00:44:44.243Z,82.55
2022-09-17T00:47:23.207Z,82.46
2022-09-17T00:49:55.629Z,82.58
2022-09-17T00:52:29.466Z,82.76
2022-09-17T00:55:04.256Z,83.06
2022-09-17T00:57:34.166Z,83.17
2022-09-17T01:00:04.012Z,83.47
2022-09-17T01:02:36.149Z,83.47
2022-09-17T01:05:05.824Z,83.72
2022-09-17T01:07:47.193Z,84.03
2022-09-17T01:10:29.466Z,84.11
2022-09-17T01:13:08.539Z,84.35
2022-09-17T01:15:43.972Z,84.55
2022-09-17T01:18:27.405Z,84.90
2022-09-17T01:21:32.685Z,85.07
2022-09-17T01:24:30.849Z,85.28
2022-09-17T01:27:45.764Z,85.50
2022-09-17T01:30:32.939Z,85.44
2022-09-17T01:33:09.036Z,85.64
2022-09-17T01:35:43.274Z,85.96
2022-09-17T01:38:16.929Z,86.26
2022-09-17T01:40:52.419Z,86.45
2022-09-17T01:43:26.498Z,86.77
2022-09-17T01:45:59.031Z,86.64
2022-09-17T01:48:30.321Z,86.56
2022-09-17T01:51:01.612Z,86.47
2022-09-17T01:53:34.089Z,86.77
2022-09-17T01:56:05.292Z,86.92
2022-09-17T01:58:36.833Z,86.96
2022-09-17T02:01:10.308Z,87.11
2022-09-17T02:03:43.803Z,87.05
2022-09-17T02:06:15.357Z,87.40
2022-09-17T02:08:48.859Z,87.48
2022-09-17T02:11:18.598Z,87.55
2022-09-17T02:13:51.215Z,87.68
2022-09-17T02:16:26.976Z,87.98
2022-09-17T02:18:59.143Z,88.00
2022-09-17T02:21:33.221Z,88.02
2022-09-17T02:24:09.497Z,88.08
2022-09-17T02:26:41.015Z,87.98
2022-09-17T02:29:12.864Z,87.92
2022-09-17T02:31:45.486Z,88.00
2022-09-17T02:34:15.057Z,87.92
2022-09-17T02:36:45.198Z,87.90
2022-09-17T02:39:14.826Z,87.85
2022-09-17T02:41:49.895Z,87.83
2022-09-17T02:44:27.963Z,87.77
2022-09-17T02:47:28.630Z,87.92
2022-09-17T02:50:10.184Z,87.77
2022-09-17T02:52:50.044Z,87.76
2022-09-17T02:55:21.404Z,87.85
2022-09-17T02:57:56.388Z,87.78
2022-09-17T03:00:28.508Z,87.85
2022-09-17T03:03:03.145Z,87.75
2022-09-17T03:05:33.428Z,87.73
2022-09-17T03:08:03.171Z,87.81
2022-09-17T03:10:33.749Z,87.91
2022-09-17T03:13:04.151Z,87.80
2022-09-17T03:15:33.690Z,87.84
2022-09-17T03:18:06.068Z,87.82
2022-09-17T03:20:35.630Z,87.87
2022-09-17T03:23:05.230Z,87.77
2022-09-17T03:25:34.861Z,87.70
2022-09-17T03:28:05.084Z,87.88
2022-09-17T03:30:34.676Z,87.85
2022-09-17T03:33:07.043Z,87.83
2022-09-17T03:35:36.615Z,88.10
2022-09-17T03:38:06.225Z,88.10
2022-09-17T03:40:35.911Z,88.30
2022-09-17T03:43:06.125Z,88.37
2022-09-17T03:45:35.969Z,88.49
2022-09-17T03:48:08.148Z,88.48
2022-09-17T03:50:37.745Z,88.50
2022-09-17T03:53:07.331Z,88.53
2022-09-17T03:55:36.960Z,88.60
2022-09-17T03:58:06.802Z,88.53
2022-09-17T04:00:37.161Z,88.58
2022-09-17T04:03:09.737Z,88.42
2022-09-17T04:05:39.336Z,88.42
2022-09-17T04:08:08.960Z,88.52
2022-09-17T04:10:38.518Z,88.29
2022-09-17T04:13:08.136Z,88.41
2022-09-17T04:15:37.909Z,88.19
2022-09-17T04:18:10.510Z,88.21
2022-09-17T04:20:40.269Z,88.08
2022-09-17T04:23:10.195Z,87.97
2022-09-17T04:25:39.756Z,87.82
2022-09-17T04:28:09.366Z,87.91
2022-09-17T04:30:39.157Z,87.96
2022-09-17T04:33:11.600Z,87.84
2022-09-17T04:35:41.188Z,87.96
2022-09-17T04:38:13.812Z,87.76
2022-09-17T04:40:44.279Z,87.90
2022-09-17T04:43:13.929Z,87.79
2022-09-17T04:45:43.496Z,87.72
2022-09-17T04:48:15.696Z,88.02
2022-09-17T04:50:45.365Z,87.93
2022-09-17T04:53:15.148Z,88.23
2022-09-17T04:55:45.719Z,88.20
2022-09-17T04:58:15.298Z,88.29
2022-09-17T05:00:45.187Z,88.20
2022-09-17T05:03:17.379Z,88.29
2022-09-17T05:05:46.957Z,88.72
2022-09-17T05:08:16.536Z,89.07
2022-09-17T05:10:46.087Z,89.15
2022-09-17T05:13:15.671Z,89.42
2022-09-17T05:15:45.373Z,89.57
2022-09-17T05:18:17.597Z,89.81
2022-09-17T05:20:47.143Z,90.07
2022-09-17T05:23:16.709Z,89.93
2022-09-17T05:25:46.349Z,89.74
2022-09-17T05:28:15.930Z,89.61
2022-09-17T05:30:45.545Z,89.68
2022-09-17T05:33:17.899Z,89.74
2022-09-17T05:35:47.464Z,89.67
2022-09-17T05:38:18.574Z,89.58
2022-09-17T05:40:49.080Z,89.81
2022-09-17T05:43:18.690Z,90.10
2022-09-17T05:45:48.458Z,90.15
2022-09-17T05:48:20.665Z,90.14
2022-09-17T05:50:50.277Z,90.21
2022-09-17T05:53:19.841Z,90.19
2022-09-17T05:55:49.465Z,89.77
2022-09-17T05:58:20.268Z,89.55
2022-09-17T06:00:50.840Z,89.13
2022-09-17T06:03:24.550Z,88.70
2022-09-17T06:05:58.885Z,88.44
2022-09-17T06:08:31.119Z,88.09
2022-09-17T06:11:02.639Z,87.71
2022-09-17T06:13:32.501Z,87.09
2022-09-17T06:16:02.662Z,86.80
2022-09-17T06:18:35.099Z,86.49
2022-09-17T06:21:06.040Z,86.12
2022-09-17T06:23:37.293Z,86.08
2022-09-17T06:26:08.835Z,85.80
2022-09-17T06:28:41.619Z,85.54
2022-09-17T06:31:12.703Z,85.06
2022-09-17T06:33:44.905Z,84.66
2022-09-17T06:36:15.177Z,84.50
2022-09-17T06:38:45.253Z,84.15
2022-09-17T06:41:16.932Z,84.07
2022-09-17T06:43:46.601Z,83.90
2022-09-17T06:46:16.299Z,83.97
2022-09-17T06:48:48.661Z,84.16
2022-09-17T06:51:18.226Z,84.25
2022-09-17T06:53:48.862Z,84.35
2022-09-17T06:56:18.692Z,84.54
2022-09-17T06:58:48.542Z,84.67
2022-09-17T07:01:18.909Z,84.82
2022-09-17T07:03:51.940Z,84.96
2022-09-17T07:06:21.634Z,84.81
2022-09-17T07:08:51.293Z,84.52
2022-09-17T07:11:20.988Z,84.00
2022-09-17T07:13:50.566Z,83.07
2022-09-17T07:16:20.303Z,82.85
2022-09-17T07:18:52.518Z,81.98
2022-09-17T07:21:22.114Z,81.77
2022-09-17T07:23:51.768Z,81.73
2022-09-17T07:26:21.410Z,81.23
2022-09-17T07:28:51.006Z,80.46
2022-09-17T07:31:20.668Z,80.14
2022-09-17T07:33:53.073Z,79.52
2022-09-17T07:36:22.863Z,77.24
2022-09-17T07:38:52.413Z,73.89
2022-09-17T07:41:21.982Z,70.25
2022-09-17T07:43:51.570Z,67.80
2022-09-17T07:46:22.974Z,65.29
2022-09-17T07:48:55.178Z,62.04
2022-09-17T07:51:26.110Z,59.03
2022-09-17T07:53:56.298Z,56.27
2022-09-17T07:56:26.794Z,54.01
2022-09-17T07:58:56.997Z,52.22
2022-09-17T08:01:27.558Z,50.74
2022-09-17T08:03:59.852Z,48.38
2022-09-17T08:06:30.179Z,48.14
2022-09-17T08:09:01.255Z,47.53
2022-09-17T08:11:54.365Z,45.97
2022-09-17T08:14:25.774Z,45.85
2022-09-17T08:16:58.903Z,45.67
2022-09-17T08:19:33.730Z,43.72
2022-09-17T08:22:03.310Z,43.16
2022-09-17T08:24:32.995Z,41.72
2022-09-17T08:27:02.818Z,40.29
2022-09-17T08:29:35.251Z,39.72
2022-09-17T08:32:05.856Z,38.72
2022-09-17T08:34:38.126Z,39.32
2022-09-17T08:37:08.347Z,39.77
2022-09-17T08:39:37.921Z,39.63
2022-09-17T08:42:12.442Z,40.23
2022-09-17T08:44:44.375Z,41.90
2022-09-17T08:47:18.589Z,41.43
2022-09-17T08:49:54.571Z,41.15
2022-09-17T08:52:47.441Z,42.25
2022-09-17T08:55:25.694Z,43.32
2022-09-17T08:58:01.538Z,44.02
2022-09-17T09:00:39.418Z,42.83
2022-09-17T09:03:21.434Z,42.28
2022-09-17T09:05:56.415Z,41.06
2022-09-17T09:08:33.285Z,39.87
2022-09-17T09:11:04.802Z,39.17
2022-09-17T09:13:38.800Z,38.83
2022-09-17T09:16:11.094Z,38.95
2022-09-17T09:18:43.247Z,39.27
2022-09-17T09:21:28.704Z,40.50
2022-09-17T09:23:59.752Z,41.24
2022-09-17T09:26:40.356Z,42.14
2022-09-17T09:29:15.847Z,42.62
2022-09-17T09:32:15.439Z,41.63
2022-09-17T09:34:46.341Z,40.22
2022-09-17T09:37:21.388Z,39.86
2022-09-17T09:39:52.527Z,40.70
2022-09-17T09:42:27.029Z,40.83
2022-09-17T09:44:56.613Z,41.59
2022-09-17T09:47:42.587Z,43.00
2022-09-17T09:50:24.745Z,43.08
2022-09-17T09:53:06.513Z,41.88
2022-09-17T09:55:47.994Z,41.98
2022-09-17T09:58:26.369Z,43.00
2022-09-17T10:00:56.017Z,43.69
2022-09-17T10:03:26.941Z,42.87
2022-09-17T10:05:58.485Z,43.11
2022-09-17T10:08:33.857Z,43.12
2022-09-17T10:11:05.823Z,42.98
2022-09-17T10:13:37.760Z,42.88
2022-09-17T10:16:20.911Z,42.73
2022-09-17T10:18:51.348Z,43.63
2022-09-17T10:21:25.230Z,44.14
2022-09-17T10:23:57.600Z,44.88
2022-09-17T10:26:30.321Z,45.21
2022-09-17T10:29:01.303Z,45.55
2022-09-17T10:31:31.285Z,46.04
2022-09-17T10:34:02.289Z,46.60
2022-09-17T10:36:45.221Z,47.22
2022-09-17T10:39:36.764Z,47.80
2022-09-17T10:42:08.091Z,48.25
2022-09-17T10:44:39.110Z,48.91
2022-09-17T10:47:14.396Z,49.34
2022-09-17T10:49:45.435Z,50.36
2022-09-17T10:52:22.769Z,50.77
2022-09-17T10:55:19.950Z,50.52
2022-09-17T10:58:12.057Z,50.10
2022-09-17T11:00:48.158Z,49.27
2022-09-17T11:03:42.819Z,48.85
2022-09-17T11:06:21.851Z,48.67
2022-09-17T11:08:57.452Z,47.92
2022-09-17T11:11:37.909Z,48.24
2022-09-17T11:14:16.048Z,48.42
2022-09-17T11:16:52.501Z,48.16
2022-09-17T11:19:28.781Z,47.95
2022-09-17T11:21:59.877Z,48.34
2022-09-17T11:24:48.917Z,49.15
2022-09-17T11:27:44.284Z,49.75
2022-09-17T11:30:19.745Z,50.04
2022-09-17T11:33:16.298Z,49.76
2022-09-17T11:35:50.205Z,49.49
2022-09-17T11:38:21.004Z,49.61
2022-09-17T11:40:55.093Z,49.81
2022-09-17T11:43:30.777Z,50.07
2022-09-17T11:46:06.625Z,49.95
2022-09-17T11:48:39.319Z,49.91
2022-09-17T11:51:23.310Z,49.30
2022-09-17T11:53:57.539Z,49.37
2022-09-17T11:56:31.068Z,49.13
2022-09-17T11:59:06.757Z,48.75
2022-09-17T12:01:40.418Z,49.00
2022-09-17T12:04:25.481Z,48.85
2022-09-17T12:07:00.234Z,48.29
2022-09-17T12:09:32.576Z,48.24
2022-09-17T12:12:05.101Z,48.68
2022-09-17T12:14:46.090Z,49.95
2022-09-17T12:17:20.222Z,51.35
2022-09-17T12:19:53.789Z,52.44
2022-09-17T12:22:25.518Z,53.41
2022-09-17T12:24:55.768Z,54.11
2022-09-17T12:27:33.946Z,55.08
2022-09-17T12:30:13.296Z,55.64
2022-09-17T12:33:03.206Z,55.96
2022-09-17T12:36:05.906Z,55.68
2022-09-17T12:39:15.360Z,55.35
2022-09-17T12:41:49.669Z,54.90
2022-09-17T12:44:35.564Z,55.10
2022-09-17T12:47:29.024Z,57.16
2022-09-17T12:50:08.616Z,59.64
2022-09-17T12:52:47.044Z,61.49
2022-09-17T12:55:32.714Z,63.28
2022-09-17T12:58:10.627Z,64.87
2022-09-17T13:00:42.537Z,65.95
2022-09-17T13:03:23.292Z,67.42
2022-09-17T13:06:14.291Z,68.06
2022-09-17T13:09:13.291Z,68.67
2022-09-17T13:12:04.860Z,69.46
2022-09-17T13:14:49.573Z,69.96
2022-09-17T13:17:27.503Z,70.31
2022-09-17T13:20:05.085Z,70.64
2022-09-17T13:22:36.061Z,70.81
2022-09-17T13:25:08.515Z,71.52
2022-09-17T13:27:38.777Z,71.53
2022-09-17T13:30:10.973Z,71.57
2022-09-17T13:32:48.518Z,71.11
2022-09-17T13:35:53.927Z,70.85
2022-09-17T13:38:24.840Z,70.21
2022-09-17T13:40:54.785Z,69.93
2022-09-17T13:43:27.894Z,69.07
2022-09-17T13:46:29.249Z,68.98
2022-09-17T13:49:02.067Z,68.70
2022-09-17T13:51:55.316Z,68.04
2022-09-17T13:54:26.138Z,67.72
2022-09-17T13:57:13.801Z,66.61
2022-09-17T13:59:56.742Z,65.55
2022-09-17T14:02:36.450Z,64.73
2022-09-17T14:05:47.920Z,63.84
2022-09-17T14:08:32.281Z,63.43
2022-09-17T14:11:02.468Z,62.67
2022-09-17T14:13:45.993Z,61.40
2022-09-17T14:16:40.829Z,61.31
2022-09-17T14:19:28.289Z,61.64
2022-09-17T14:22:03.813Z,62.66
2022-09-17T14:24:40.016Z,72.03
2022-09-17T14:27:16.277Z,76.76
2022-09-17T14:30:14.747Z,80.20
2022-09-17T14:32:49.556Z,82.77
2022-09-17T14:35:22.320Z,84.06
2022-09-17T14:37:56.821Z,84.46
2022-09-17T14:40:29.655Z,84.75
2022-09-17T14:43:00.467Z,84.89
2022-09-17T14:45:35.320Z,85.10
2022-09-17T14:48:20.453Z,85.04
2022-09-17T14:50:50.089Z,85.04
2022-09-17T14:53:21.106Z,85.43
2022-09-17T14:55:53.705Z,85.29
2022-09-17T14:58:33.750Z,85.32
2022-09-17T15:01:03.640Z,85.49
2022-09-17T15:03:33.241Z,85.03
2022-09-17T15:06:03.225Z,84.88
2022-09-17T15:08:32.812Z,84.53
2022-09-17T15:11:06.344Z,84.12
2022-09-17T15:13:38.867Z,83.86
2022-09-17T15:16:14.015Z,83.70
2022-09-17T15:18:45.876Z,83.42
2022-09-17T15:21:24.456Z,83.25
2022-09-17T15:23:55.809Z,83.28
2022-09-17T15:26:36.542Z,83.27
2022-09-17T15:29:07.224Z,83.27
2022-09-17T15:31:37.496Z,83.45
2022-09-17T15:34:07.495Z,83.40
2022-09-17T15:36:37.824Z,83.42
2022-09-17T15:39:32.232Z,83.00
2022-09-17T15:42:04.926Z,82.78
2022-09-17T15:44:35.446Z,82.80
2022-09-17T15:47:35.602Z,82.55
2022-09-17T15:50:19.086Z,82.66
2022-09-17T15:52:49.026Z,82.66
2022-09-17T15:55:36.569Z,82.14
2022-09-17T15:58:24.055Z,81.32
2022-09-17T16:01:39.830Z,81.04
2022-09-17T16:04:22.324Z,80.57
2022-09-17T16:06:59.284Z,80.37
2022-09-17T16:09:53.761Z,79.51
2022-09-17T16:12:25.141Z,79.49
2022-09-17T16:14:58.890Z,78.20
2022-09-17T16:17:33.239Z,77.86
2022-09-17T16:20:06.346Z,77.54
2022-09-17T16:22:36.271Z,77.40
2022-09-17T16:25:06.357Z,77.26
2022-09-17T16:27:41.324Z,77.16
2022-09-17T16:30:18.026Z,77.13
2022-09-17T16:32:48.141Z,76.77
2022-09-17T16:35:19.040Z,76.24
2022-09-17T16:37:51.430Z,75.82
2022-09-17T16:40:21.609Z,75.94
2022-09-17T16:42:51.430Z,75.69
2022-09-17T16:45:28.198Z,75.26
2022-09-17T16:47:58.867Z,74.88
2022-09-17T16:50:28.878Z,73.99
2022-09-17T16:53:02.797Z,73.19
2022-09-17T16:55:34.377Z,72.91
2022-09-17T16:58:03.944Z,72.61
2022-09-17T17:00:36.189Z,72.45
2022-09-17T17:03:07.514Z,72.68
2022-09-17T17:05:39.323Z,72.74
2022-09-17T17:08:09.343Z,73.11
2022-09-17T17:10:40.677Z,73.42
2022-09-17T17:13:10.261Z,73.56
2022-09-17T17:15:43.147Z,73.85
2022-09-17T17:18:12.812Z,74.13
2022-09-17T17:20:42.398Z,74.43
2022-09-17T17:23:12.625Z,74.75
2022-09-17T17:25:42.239Z,74.99
2022-09-17T17:28:12.158Z,75.47
2022-09-17T17:30:44.321Z,75.74
2022-09-17T17:33:13.906Z,75.85
2022-09-17T17:35:45.453Z,76.08
2022-09-17T17:38:15.060Z,76.13
2022-09-17T17:40:45.274Z,76.60
2022-09-17T17:43:15.117Z,76.72
2022-09-17T17:45:47.248Z,77.07
2022-09-17T17:48:16.896Z,77.42
2022-09-17T17:50:46.441Z,77.56
2022-09-17T17:53:16.011Z,77.68
2022-09-17T17:55:45.588Z,77.92
2022-09-17T17:58:15.565Z,78.39
2022-09-17T18:00:47.704Z,78.58
2022-09-17T18:03:17.290Z,78.75
2022-09-17T18:05:46.996Z,78.92
2022-09-17T18:08:16.572Z,79.17
2022-09-17T18:10:54.208Z,79.62
2022-09-17T18:13:23.931Z,79.80
2022-09-17T18:15:58.934Z,80.16
2022-09-17T18:18:34.378Z,80.39
2022-09-17T18:21:06.264Z,80.52
2022-09-17T18:23:37.866Z,80.86
2022-09-17T18:26:09.317Z,81.13
2022-09-17T18:28:39.086Z,81.46
2022-09-17T18:31:12.390Z,81.88
2022-09-17T18:33:42.269Z,82.12
2022-09-17T18:36:12.804Z,82.33
2022-09-17T18:38:42.376Z,82.36
2022-09-17T18:41:14.533Z,82.30
2022-09-17T18:43:44.645Z,82.23
2022-09-17T18:46:16.827Z,82.19
2022-09-17T18:48:46.663Z,82.08
2022-09-17T18:51:17.143Z,82.06
2022-09-17T18:53:51.320Z,81.84
2022-09-17T18:56:22.584Z,81.54
2022-09-17T18:58:55.182Z,81.46
2022-09-17T19:01:29.164Z,81.62
2022-09-17T19:03:59.920Z,81.36
2022-09-17T19:06:31.997Z,81.14
2022-09-17T19:09:03.180Z,80.97
2022-09-17T19:11:32.920Z,80.95
2022-09-17T19:14:02.528Z,80.70
2022-09-17T19:16:35.104Z,80.42
2022-09-17T19:19:04.681Z,80.36
2022-09-17T19:21:34.337Z,80.26
2022-09-17T19:24:04.494Z,80.00
2022-09-17T19:26:34.053Z,80.18
2022-09-17T19:29:03.639Z,80.18
2022-09-17T19:31:35.925Z,80.26
2022-09-17T19:34:05.709Z,80.16
2022-09-17T19:36:35.266Z,80.18
2022-09-17T19:39:04.865Z,79.96
2022-09-17T19:41:36.268Z,79.83
2022-09-17T19:44:06.360Z,79.67
2022-09-17T19:46:38.587Z,79.59
2022-09-17T19:49:09.482Z,79.33
2022-09-17T19:51:39.032Z,79.13
2022-09-17T19:54:09.633Z,78.89
2022-09-17T19:56:39.213Z,78.41
2022-09-17T19:59:08.989Z,77.99
2022-09-17T20:01:42.396Z,77.16
2022-09-17T20:04:14.613Z,76.44
2022-09-17T20:06:44.571Z,75.98
2022-09-17T20:09:14.436Z,75.64
2022-09-17T20:11:44.011Z,75.25
2022-09-17T20:14:13.917Z,74.73
2022-09-17T20:16:47.021Z,74.36
2022-09-17T20:19:18.321Z,73.95
2022-09-17T20:21:47.861Z,73.66
2022-09-17T20:24:17.585Z,73.55
2022-09-17T20:26:47.163Z,73.05
2022-09-17T20:29:16.731Z,72.91
2022-09-17T20:31:48.923Z,72.64
2022-09-17T20:34:18.537Z,72.58
2022-09-17T20:36:48.169Z,72.36
2022-09-17T20:39:22.308Z,72.41
2022-09-17T20:41:52.965Z,72.21
2022-09-17T20:44:22.649Z,72.30
2022-09-17T20:46:55.944Z,72.40
2022-09-17T20:49:25.793Z,72.49
2022-09-17T20:51:55.359Z,72.60
2022-09-17T20:54:24.942Z,72.93
2022-09-17T20:56:54.529Z,72.67
2022-09-17T20:59:28.232Z,73.01
2022-09-17T21:02:00.437Z,72.97
2022-09-17T21:04:30.163Z,73.33
2022-09-17T21:06:59.802Z,73.31
2022-09-17T21:09:29.356Z,73.32
2022-09-17T21:11:58.920Z,73.36
2022-09-17T21:14:28.594Z,73.59
2022-09-17T21:17:00.731Z,73.61
2022-09-17T21:19:30.336Z,73.76
2022-09-17T21:21:59.900Z,73.72
2022-09-17T21:24:29.467Z,73.84
2022-09-17T21:26:59.018Z,74.20
2022-09-17T21:29:28.578Z,74.40
2022-09-17T21:32:00.819Z,74.69
2022-09-17T21:34:30.582Z,74.97
2022-09-17T21:37:00.193Z,75.10
2022-09-17T21:39:30.025Z,75.39
2022-09-17T21:41:59.591Z,75.74
2022-09-17T21:44:29.149Z,76.27
2022-09-17T21:47:01.312Z,76.74
2022-09-17T21:49:30.869Z,77.24
2022-09-17T21:52:00.465Z,78.04
2022-09-17T21:54:30.044Z,79.14
2022-09-17T21:57:00.033Z,79.85
2022-09-17T21:59:29.891Z,80.36
2022-09-17T22:02:02.091Z,81.16
2022-09-17T22:04:31.735Z,81.64
2022-09-17T22:07:01.310Z,82.03
2022-09-17T22:09:31.407Z,82.46
2022-09-17T22:12:01.867Z,82.71
2022-09-17T22:14:31.723Z,83.20
2022-09-17T22:17:03.889Z,83.62
2022-09-17T22:19:33.436Z,83.73
2022-09-17T22:22:03.002Z,84.02
2022-09-17T22:24:32.729Z,84.19
2022-09-17T22:27:02.297Z,84.23
2022-09-17T22:29:32.940Z,84.33
2022-09-17T22:32:05.837Z,84.45
2022-09-17T22:34:35.545Z,84.55
2022-09-17T22:37:06.345Z,84.68
2022-09-17T22:39:35.968Z,84.77
2022-09-17T22:42:05.581Z,84.84
2022-09-17T22:44:35.210Z,85.12
2022-09-17T22:47:07.509Z,85.23
2022-09-17T22:49:37.055Z,85.25
2022-09-17T22:52:06.645Z,85.49
2022-09-17T22:54:36.209Z,85.69
2022-09-17T22:57:05.810Z,85.72
2022-09-17T22:59:35.365Z,85.93
2022-09-17T23:02:08.144Z,86.21
2022-09-17T23:04:37.748Z,86.23
2022-09-17T23:07:07.514Z,86.33
2022-09-17T23:09:37.408Z,86.38
2022-09-17T23:12:07.767Z,86.44
2022-09-17T23:14:37.432Z,86.48
2022-09-17T23:17:09.594Z,86.45
2022-09-17T23:19:39.126Z,86.38
2022-09-17T23:22:08.711Z,86.64
2022-09-17T23:24:38.269Z,86.72
2022-09-17T23:27:07.918Z,86.92
2022-09-17T23:29:37.475Z,87.07
2022-09-17T23:32:09.651Z,87.12
2022-09-17T23:34:40.874Z,87.25
2022-09-17T23:37:10.449Z,87.15
2022-09-17T23:39:41.405Z,87.19
2022-09-17T23:42:11.001Z,87.43
2022-09-17T23:44:40.556Z,87.40
2022-09-17T23:47:12.712Z,87.50
2022-09-17T23:49:42.291Z,87.56
2022-09-17T23:52:11.884Z,87.49
2022-09-17T23:54:41.436Z,87.52
2022-09-17T23:57:11.040Z,87.68
2022-09-17T23:59:40.636Z,87.69
